createdAt,value
2018-05-01T00:02:35.601Z,50.50
2018-05-01T00:08:39.078Z,50.40
2018-05-01T00:14:43.410Z,50.30
2018-05-01T00:20:46.893Z,50.30
2018-05-01T00:26:51.045Z,50.30
2018-05-01T00:32:55.162Z,50.20
2018-05-01T00:38:58.580Z,50.20
2018-05-01T00:45:01.963Z,50.10
2018-05-01T00:51:05.461Z,50.00
2018-05-01T00:57:08.921Z,50.00
2018-05-01T01:03:13.266Z,50.00
2018-05-01T01:09:16.826Z,50.00
2018-05-01T01:15:20.388Z,50.00
2018-05-01T01:21:23.913Z,50.00
2018-05-01T01:27:27.306Z,50.50
2018-05-01T01:33:31.565Z,49.70
2018-05-01T01:39:35.110Z,49.70
2018-05-01T01:45:37.941Z,49.70
2018-05-01T01:51:41.401Z,49.70
2018-05-01T01:57:44.846Z,49.60
2018-05-01T02:03:47.457Z,49.40
2018-05-01T02:09:51.619Z,49.20
2018-05-01T02:15:54.230Z,49.10
2018-05-01T02:21:56.843Z,49.30
2018-05-01T02:27:59.558Z,49.20
2018-05-01T02:34:02.345Z,49.20
2018-05-01T02:40:05.017Z,49.20
2018-05-01T02:46:08.408Z,49.10
2018-05-01T02:52:11.186Z,49.00
2018-05-01T02:58:13.804Z,49.20
2018-05-01T03:04:16.480Z,48.80
2018-05-01T03:10:19.199Z,49.20
2018-05-01T03:16:22.649Z,49.10
2018-05-01T03:22:26.184Z,49.20
2018-05-01T03:28:29.738Z,48.90
2018-05-01T03:34:32.779Z,48.90
2018-05-01T03:40:36.320Z,48.80
2018-05-01T03:46:38.994Z,48.70
2018-05-01T03:52:41.655Z,48.70
2018-05-01T03:58:44.337Z,48.70
2018-05-01T04:04:47.792Z,48.60
2018-05-01T04:10:51.329Z,48.30
2018-05-01T04:16:53.979Z,48.20
2018-05-01T04:22:57.423Z,47.40
2018-05-01T04:29:00.877Z,47.10
2018-05-01T04:35:04.405Z,47.10
2018-05-01T04:41:07.136Z,47.10
2018-05-01T04:47:09.801Z,46.90
2018-05-01T04:53:12.509Z,46.50
2018-05-01T04:59:15.263Z,46.70
2018-05-01T05:05:18.621Z,46.70
2018-05-01T05:11:21.246Z,46.70
2018-05-01T05:17:23.954Z,46.10
2018-05-01T05:23:26.585Z,46.90
2018-05-01T05:29:29.239Z,45.70
2018-05-01T05:35:31.865Z,45.80
2018-05-01T05:41:35.241Z,45.30
2018-05-01T05:47:37.949Z,45.30
2018-05-01T05:53:41.398Z,45.40
2018-05-01T05:59:44.834Z,44.90
2018-05-01T06:05:48.362Z,45.10
2018-05-01T06:11:51.031Z,45.00
2018-05-01T06:17:54.491Z,45.40
2018-05-01T06:23:57.309Z,45.30
2018-05-01T06:30:00.765Z,45.40
2018-05-01T06:36:04.193Z,46.20
2018-05-01T06:42:06.846Z,45.90
2018-05-01T06:48:10.380Z,45.40
2018-05-01T06:54:13.087Z,45.40
2018-05-01T07:00:15.778Z,46.20
2018-05-01T07:06:18.479Z,46.40
2018-05-01T07:12:21.220Z,46.70
2018-05-01T07:18:24.757Z,46.20
2018-05-01T07:24:27.423Z,46.20
2018-05-01T07:30:30.955Z,45.60
2018-05-01T07:36:33.796Z,45.60
2018-05-01T07:42:36.632Z,45.50
2018-05-01T07:48:40.591Z,45.30
2018-05-01T07:54:44.129Z,45.50
2018-05-01T08:00:46.763Z,45.30
2018-05-01T08:06:49.432Z,45.30
2018-05-01T08:12:52.191Z,45.30
2018-05-01T08:18:54.892Z,45.30
2018-05-01T08:24:58.287Z,45.30
2018-05-01T08:31:00.951Z,45.30
2018-05-01T08:37:03.685Z,45.70
2018-05-01T08:43:07.242Z,45.90
2018-05-01T08:49:10.793Z,46.40
2018-05-01T08:55:14.344Z,45.70
2018-05-01T09:01:17.896Z,45.50
2018-05-01T09:07:20.623Z,45.80
2018-05-01T09:13:24.034Z,46.50
2018-05-01T09:19:26.709Z,46.40
2018-05-01T09:25:29.434Z,45.90
2018-05-01T09:31:32.174Z,45.90
2018-05-01T09:37:35.640Z,46.00
2018-05-01T09:43:39.183Z,46.50
2018-05-01T09:49:42.563Z,46.60
2018-05-01T09:55:45.998Z,46.50
2018-05-01T10:01:49.692Z,46.80
2018-05-01T10:07:53.041Z,46.70
2018-05-01T10:13:56.533Z,46.80
2018-05-01T10:19:59.989Z,46.80
2018-05-01T10:26:03.405Z,46.80
2018-05-01T10:32:07.729Z,46.80
2018-05-01T10:38:11.211Z,46.80
2018-05-01T10:44:14.785Z,46.80
2018-05-01T10:50:18.966Z,47.00
2018-05-01T10:56:22.497Z,46.90
2018-05-01T11:02:25.974Z,46.90
2018-05-01T11:08:29.514Z,47.00
2018-05-01T11:14:33.695Z,46.90
2018-05-01T11:20:37.222Z,46.90
2018-05-01T11:26:40.777Z,47.00
2018-05-01T11:32:44.251Z,47.00
2018-05-01T11:38:47.677Z,47.00
2018-05-01T11:44:51.874Z,47.10
2018-05-01T11:50:55.383Z,47.10
2018-05-01T11:56:58.866Z,47.10
2018-05-01T12:03:02.298Z,47.30
2018-05-01T12:09:06.917Z,47.40
2018-05-01T12:15:10.833Z,47.30
2018-05-01T12:21:15.306Z,47.40
2018-05-01T12:27:18.777Z,47.30
2018-05-01T12:33:22.313Z,47.40
2018-05-01T12:39:26.514Z,47.40
2018-05-01T12:45:29.923Z,47.40
2018-05-01T12:51:33.453Z,47.40
2018-05-01T12:57:37.483Z,47.40
2018-05-01T13:03:40.979Z,47.40
2018-05-01T13:09:44.546Z,47.40
2018-05-01T13:15:48.120Z,47.40
2018-05-01T13:21:51.581Z,48.10
2018-05-01T13:27:55.014Z,47.40
2018-05-01T13:33:59.169Z,47.60
2018-05-01T13:40:03.362Z,47.60
2018-05-01T13:46:06.870Z,47.50
2018-05-01T13:52:10.290Z,47.60
2018-05-01T13:58:13.893Z,47.60
2018-05-01T14:04:18.156Z,47.70
2018-05-01T14:10:22.327Z,47.80
2018-05-01T14:16:26.594Z,47.70
2018-05-01T14:22:30.862Z,48.30
2018-05-01T14:28:35.046Z,47.70
2018-05-01T14:34:39.221Z,47.60
2018-05-01T14:40:42.667Z,47.60
2018-05-01T14:46:46.836Z,47.60
2018-05-01T14:52:50.293Z,47.50
2018-05-01T14:58:53.773Z,47.70
2018-05-01T15:04:57.188Z,47.60
2018-05-01T15:11:00.716Z,47.70
2018-05-01T15:17:04.909Z,48.20
2018-05-01T15:23:08.457Z,47.70
2018-05-01T15:29:11.998Z,47.80
2018-05-01T15:35:16.158Z,47.90
2018-05-01T15:41:19.626Z,47.80
2018-05-01T15:47:23.773Z,47.90
2018-05-01T15:53:27.965Z,47.90
2018-05-01T15:59:31.468Z,47.70
2018-05-01T16:05:34.948Z,48.10
2018-05-01T16:11:39.432Z,48.00
2018-05-01T16:17:43.627Z,48.10
2018-05-01T16:23:47.044Z,48.00
2018-05-01T16:29:51.376Z,48.00
2018-05-01T16:35:55.003Z,48.00
2018-05-01T16:41:58.438Z,48.00
2018-05-01T16:48:02.038Z,48.00
2018-05-01T16:54:05.845Z,48.00
2018-05-01T17:00:09.339Z,48.70
2018-05-01T17:06:12.925Z,48.00
2018-05-01T17:12:16.484Z,48.00
2018-05-01T17:18:20.671Z,47.90
2018-05-01T17:24:24.293Z,47.80
2018-05-01T17:30:28.502Z,47.80
2018-05-01T17:36:31.951Z,47.70
2018-05-01T17:42:35.700Z,47.80
2018-05-01T17:48:39.332Z,47.70
2018-05-01T17:54:43.702Z,48.40
2018-05-01T18:00:47.972Z,47.70
2018-05-01T18:06:51.389Z,47.60
2018-05-01T18:12:54.799Z,47.70
2018-05-01T18:18:58.239Z,47.60
2018-05-01T18:25:02.596Z,49.80
2018-05-01T18:31:06.113Z,49.70
2018-05-01T18:37:09.743Z,49.50
2018-05-01T18:43:13.226Z,50.50
2018-05-01T18:49:16.733Z,50.50
2018-05-01T18:55:20.277Z,50.40
2018-05-01T19:01:23.874Z,50.40
2018-05-01T19:07:27.379Z,50.20
2018-05-01T19:13:30.921Z,50.40
2018-05-01T19:19:34.388Z,50.20
2018-05-01T19:25:37.918Z,50.50
2018-05-01T19:31:42.118Z,50.90
2018-05-01T19:37:45.565Z,50.50
2018-05-01T19:43:49.004Z,50.50
2018-05-01T19:49:52.396Z,50.30
2018-05-01T19:55:55.884Z,50.40
2018-05-01T20:02:00.014Z,50.20
2018-05-01T20:08:03.408Z,50.20
2018-05-01T20:14:07.682Z,50.10
2018-05-01T20:20:11.873Z,50.40
2018-05-01T20:26:15.369Z,50.30
2018-05-01T20:32:18.950Z,50.10
2018-05-01T20:38:23.128Z,50.10
2018-05-01T20:44:26.691Z,50.10
2018-05-01T20:50:30.046Z,51.30
2018-05-01T20:56:33.562Z,50.20
2018-05-01T21:02:37.829Z,50.00
2018-05-01T21:08:41.972Z,50.00
2018-05-01T21:14:45.459Z,50.00
2018-05-01T21:20:48.997Z,50.00
2018-05-01T21:26:52.549Z,50.50
2018-05-01T21:32:55.989Z,50.50
2018-05-01T21:38:59.495Z,50.90
2018-05-01T21:45:02.948Z,50.90
2018-05-01T21:51:06.505Z,51.10
2018-05-01T21:57:10.172Z,51.10
2018-05-01T22:03:13.774Z,51.20
2018-05-01T22:09:18.037Z,51.00
2018-05-01T22:15:21.587Z,50.80
2018-05-01T22:21:25.857Z,51.00
2018-05-01T22:27:29.419Z,50.90
2018-05-01T22:33:33.684Z,51.00
2018-05-01T22:39:38.059Z,51.10
2018-05-01T22:45:42.323Z,51.30
2018-05-01T22:51:46.588Z,51.40
2018-05-01T22:57:50.141Z,51.30
2018-05-01T23:03:54.336Z,51.00
2018-05-01T23:09:57.865Z,50.90
2018-05-01T23:16:02.130Z,51.20
2018-05-01T23:22:05.665Z,51.20
2018-05-01T23:28:09.197Z,51.20
2018-05-01T23:34:12.959Z,51.50
2018-05-01T23:40:16.391Z,51.50
2018-05-01T23:46:19.815Z,51.40
2018-05-01T23:52:23.197Z,52.10
2018-05-01T23:58:26.699Z,51.70
